createdAt,value
2023-01-22T10:49:57.574Z,-0.52
2023-01-22T10:50:57.551Z,-0.55
2023-01-22T10:51:57.464Z,-0.50
2023-01-22T10:52:57.403Z,-0.57
2023-01-22T10:53:57.364Z,-0.61
2023-01-22T10:54:57.277Z,-0.63
2023-01-22T10:55:57.203Z,-0.64
2023-01-22T10:56:57.144Z,-0.63
2023-01-22T10:57:57.066Z,-0.67
2023-01-22T10:58:57.048Z,-0.58
2023-01-22T10:59:56.962Z,-0.60
2023-01-22T11:00:56.889Z,-0.52
2023-01-22T11:01:56.813Z,-0.50
2023-01-22T11:02:56.745Z,-0.50
2023-01-22T11:03:56.663Z,-0.50
2023-01-22T11:04:56.654Z,-0.57
2023-01-22T11:05:56.525Z,-0.53
2023-01-22T11:06:56.453Z,-0.52
2023-01-22T11:07:56.373Z,-0.49
2023-01-22T11:08:56.299Z,-0.49
2023-01-22T11:09:56.244Z,-0.46
2023-01-22T11:10:56.149Z,-0.49
2023-01-22T11:11:56.057Z,-0.47
2023-01-22T11:12:58.631Z,-0.53
2023-01-22T11:13:55.914Z,-0.50
2023-01-22T11:14:55.837Z,-0.46
2023-01-22T11:15:55.775Z,-0.39
2023-01-22T11:16:55.688Z,-0.40
2023-01-22T11:17:55.595Z,-0.34
2023-01-22T11:18:55.536Z,-0.34
2023-01-22T11:19:55.447Z,-0.28
2023-01-22T11:20:55.368Z,-0.27
2023-01-22T11:21:55.285Z,-0.39
2023-01-22T11:22:55.204Z,-0.43
2023-01-22T11:23:55.131Z,-0.39
2023-01-22T11:24:55.069Z,-0.40
2023-01-22T11:25:54.995Z,-0.34
2023-01-22T11:26:54.897Z,-0.39
2023-01-22T11:27:54.820Z,-0.42
2023-01-22T11:28:54.754Z,-0.38
2023-01-22T11:29:54.658Z,-0.43
2023-01-22T11:30:54.713Z,-0.42
2023-01-22T11:31:54.534Z,-0.38
2023-01-22T11:32:54.431Z,-0.35
2023-01-22T11:33:54.354Z,-0.42
2023-01-22T11:34:54.279Z,-0.35
2023-01-22T11:35:54.197Z,-0.38
2023-01-22T11:36:54.111Z,-0.35
2023-01-22T11:37:54.029Z,-0.32
2023-01-22T11:38:53.949Z,-0.32
2023-01-22T11:39:53.851Z,-0.32
2023-01-22T11:40:53.802Z,-0.32
2023-01-22T11:41:53.690Z,-0.34
2023-01-22T11:42:53.611Z,-0.38
2023-01-22T11:43:53.542Z,-0.31
2023-01-22T11:44:53.466Z,-0.34
2023-01-22T11:45:53.416Z,-0.35
2023-01-22T11:46:53.301Z,-0.29
2023-01-22T11:47:53.229Z,-0.35
2023-01-22T11:48:53.159Z,-0.38
2023-01-22T11:49:53.073Z,-0.43
2023-01-22T11:50:53.067Z,-0.39
2023-01-22T11:51:52.927Z,-0.29
2023-01-22T11:52:52.853Z,-0.29
2023-01-22T11:53:52.763Z,-0.35
2023-01-22T11:54:52.695Z,-0.31
2023-01-22T11:55:52.613Z,-0.27
2023-01-22T11:56:52.545Z,-0.21
2023-01-22T11:57:52.440Z,-0.28
2023-01-22T11:58:52.358Z,-0.24
2023-01-22T11:59:52.269Z,-0.29
2023-01-22T12:00:52.181Z,-0.28
2023-01-22T12:01:52.114Z,-0.34
2023-01-22T12:02:52.035Z,-0.39
2023-01-22T12:03:51.980Z,-0.34
2023-01-22T12:04:51.855Z,-0.34
2023-01-22T12:05:51.786Z,-0.38
2023-01-22T12:06:51.719Z,-0.31
2023-01-22T12:07:51.616Z,-0.34
2023-01-22T12:08:51.554Z,-0.32
2023-01-22T12:09:51.460Z,-0.28
2023-01-22T12:10:53.484Z,-0.28
2023-01-22T12:11:51.309Z,-0.25
2023-01-22T12:12:51.256Z,-0.28
2023-01-22T12:13:51.136Z,-0.32
2023-01-22T12:14:51.075Z,-0.29
2023-01-22T12:15:51.031Z,-0.27
2023-01-22T12:16:50.939Z,-0.20
2023-01-22T12:17:50.866Z,-0.21
2023-01-22T12:18:50.787Z,-0.24
2023-01-22T12:19:50.697Z,-0.27
2023-01-22T12:20:50.618Z,-0.27
2023-01-22T12:21:50.546Z,-0.24
2023-01-22T12:22:50.467Z,-0.20
2023-01-22T12:23:50.377Z,-0.16
2023-01-22T12:24:50.280Z,-0.10
2023-01-22T12:25:50.199Z,-0.04
2023-01-22T12:26:50.121Z,-0.07
2023-01-22T12:27:50.036Z,-0.06
2023-01-22T12:28:49.980Z,-0.03
2023-01-22T12:29:49.869Z,-0.09
2023-01-22T12:30:49.824Z,0.00
2023-01-22T12:31:49.725Z,-0.14
2023-01-22T12:32:49.629Z,-0.16
2023-01-22T12:33:49.538Z,-0.11
2023-01-22T12:34:49.447Z,-0.13
2023-01-22T12:35:49.424Z,-0.14
2023-01-22T12:36:49.280Z,-0.13
2023-01-22T12:37:49.214Z,-0.17
2023-01-22T12:38:49.100Z,-0.11
2023-01-22T12:39:49.020Z,-0.16
2023-01-22T12:40:48.942Z,-0.10
2023-01-22T12:41:48.845Z,-0.09
2023-01-22T12:42:48.771Z,-0.06
2023-01-22T12:43:48.671Z,-0.11
2023-01-22T12:44:48.581Z,-0.17
2023-01-22T12:45:48.484Z,-0.14
2023-01-22T12:46:48.430Z,-0.14
2023-01-22T12:47:48.312Z,-0.11
2023-01-22T12:48:48.259Z,-0.06
2023-01-22T12:49:48.132Z,0.00
2023-01-22T12:50:48.090Z,0.11
2023-01-22T12:51:47.963Z,0.07
2023-01-22T12:52:47.895Z,0.09
2023-01-22T12:53:47.812Z,0.04
2023-01-22T12:54:47.722Z,0.12
2023-01-22T12:55:47.633Z,0.07
2023-01-22T12:56:47.545Z,0.09
2023-01-22T12:57:47.465Z,0.12
2023-01-22T12:58:47.400Z,0.15
2023-01-22T12:59:47.317Z,0.18
2023-01-22T13:00:47.245Z,0.14
2023-01-22T13:01:47.170Z,0.18
2023-01-22T13:02:47.067Z,0.23
2023-01-22T13:03:46.995Z,0.11
2023-01-22T13:04:46.891Z,0.17
2023-01-22T13:05:46.801Z,0.17
2023-01-22T13:06:46.725Z,0.14
2023-01-22T13:07:46.654Z,0.14
2023-01-22T13:08:46.593Z,0.07
2023-01-22T13:09:46.466Z,0.09
2023-01-22T13:10:46.413Z,0.12
2023-01-22T13:11:46.305Z,0.11
2023-01-22T13:12:46.223Z,0.11
2023-01-22T13:13:46.136Z,0.08
2023-01-22T13:14:46.057Z,0.14
2023-01-22T13:15:45.976Z,0.07
2023-01-22T13:16:45.896Z,0.12
2023-01-22T13:17:47.461Z,0.08
2023-01-22T13:18:46.730Z,0.05
2023-01-22T13:19:45.787Z,0.11
2023-01-22T13:20:45.565Z,0.04
2023-01-22T13:21:45.499Z,0.11
2023-01-22T13:22:45.408Z,0.11
2023-01-22T13:23:45.317Z,0.09
2023-01-22T13:24:45.237Z,0.07
2023-01-22T13:25:45.168Z,0.05
2023-01-22T13:26:45.078Z,0.09
2023-01-22T13:27:44.988Z,0.08
2023-01-22T13:28:44.899Z,0.11
2023-01-22T13:29:44.833Z,0.02
2023-01-22T13:30:44.821Z,0.08
2023-01-22T13:31:44.698Z,0.11
2023-01-22T13:32:44.566Z,0.07
2023-01-22T13:33:44.495Z,0.12
2023-01-22T13:34:44.400Z,0.20
2023-01-22T13:35:44.341Z,0.12
2023-01-22T13:36:44.241Z,0.08
2023-01-22T13:37:44.161Z,0.11
2023-01-22T13:38:44.071Z,0.14
2023-01-22T13:39:43.981Z,0.09
2023-01-22T13:40:51.274Z,0.14
2023-01-22T13:41:44.813Z,0.09
2023-01-22T13:42:43.722Z,0.22
2023-01-22T17:15:09.542Z,-1.39
2023-01-22T17:16:09.447Z,-1.37
2023-01-22T17:17:09.391Z,-1.37
2023-01-22T17:18:09.359Z,-1.41
2023-01-22T17:19:09.280Z,-1.41
2023-01-22T17:20:09.220Z,-1.34
2023-01-22T17:21:09.172Z,-1.39
2023-01-22T17:22:09.110Z,-1.33
2023-01-22T17:23:09.061Z,-1.37
2023-01-22T17:24:08.983Z,-1.37
2023-01-22T17:25:08.943Z,-1.37
2023-01-22T17:26:08.879Z,-1.37
2023-01-22T17:27:08.818Z,-1.37
2023-01-22T17:28:08.732Z,-1.37
2023-01-22T17:29:08.690Z,-1.40
2023-01-22T17:30:08.621Z,-1.40
2023-01-22T17:31:08.707Z,-1.34
2023-01-22T17:32:08.492Z,-1.39
2023-01-22T17:33:08.433Z,-1.40
2023-01-22T17:34:08.389Z,-1.40
2023-01-22T17:35:08.309Z,-1.40
2023-01-22T17:36:08.230Z,-1.37
2023-01-22T17:37:08.166Z,-1.40
2023-01-22T17:38:08.082Z,-1.41
2023-01-22T17:39:08.035Z,-1.39
2023-01-22T17:40:07.936Z,-1.43
2023-01-22T17:41:07.883Z,-1.36
2023-01-22T17:42:07.803Z,-1.39
2023-01-22T17:43:07.743Z,-1.43
2023-01-22T17:44:07.705Z,-1.37
2023-01-22T17:45:07.608Z,-1.41
2023-01-22T17:46:07.596Z,-1.34
2023-01-22T17:47:07.474Z,-1.44
2023-01-22T17:48:07.414Z,-1.43
2023-01-22T17:49:07.364Z,-1.39
2023-01-22T17:50:07.292Z,-1.44
2023-01-22T17:51:07.310Z,-1.43
2023-01-22T17:52:07.153Z,-1.46
2023-01-22T17:53:07.093Z,-1.47
2023-01-22T17:54:07.033Z,-1.43
2023-01-22T17:55:06.986Z,-1.40
2023-01-22T17:56:06.906Z,-1.40
2023-01-22T17:57:06.845Z,-1.37
2023-01-22T17:58:06.765Z,-1.40
2023-01-22T17:59:06.724Z,-1.43
2023-01-22T18:00:06.640Z,-1.39
2023-01-22T18:01:06.556Z,-1.46
2023-01-22T18:02:06.477Z,-1.43
2023-01-22T18:03:06.408Z,-1.43
2023-01-22T18:04:06.327Z,-1.46
2023-01-22T18:05:06.977Z,-1.44
2023-01-22T18:06:06.190Z,-1.47
2023-01-22T18:07:06.117Z,-1.49
2023-01-22T18:08:06.028Z,-1.46
2023-01-22T18:09:05.962Z,-1.44
2023-01-22T18:10:05.891Z,-1.44
2023-01-22T18:11:05.828Z,-1.46
2023-01-22T18:12:05.735Z,-1.49
2023-01-22T18:13:05.668Z,-1.47
2023-01-22T18:14:05.597Z,-1.44
2023-01-22T18:15:05.533Z,-1.47
2023-01-22T18:16:05.506Z,-1.43
2023-01-22T18:17:05.389Z,-1.44
2023-01-22T18:18:05.318Z,-1.47
2023-01-22T18:19:05.265Z,-1.43
2023-01-22T18:20:05.307Z,-1.46
2023-01-22T18:21:05.132Z,-1.52
2023-01-22T18:22:05.054Z,-1.46
2023-01-22T18:23:04.957Z,-1.52
2023-01-22T18:24:04.883Z,-1.49
2023-01-22T18:25:04.824Z,-1.47
2023-01-22T18:26:04.756Z,-1.51
2023-01-22T18:27:04.669Z,-1.46
2023-01-22T18:28:04.590Z,-1.44
2023-01-22T18:29:04.558Z,-1.49
2023-01-22T18:30:04.472Z,-1.46
2023-01-22T18:31:04.465Z,-1.46
2023-01-22T18:32:04.345Z,-1.51
2023-01-22T18:33:04.260Z,-1.49
2023-01-22T18:34:04.170Z,-1.44
2023-01-22T18:35:04.112Z,-1.49
2023-01-22T18:36:04.052Z,-1.57
2023-01-22T18:37:03.986Z,-1.54
2023-01-22T18:38:03.883Z,-1.57
2023-01-22T18:39:03.827Z,-1.51
2023-01-22T18:40:03.753Z,-1.55
2023-01-22T18:41:03.681Z,-1.55
2023-01-22T18:42:03.601Z,-1.57
2023-01-22T18:43:03.539Z,-1.57
2023-01-22T18:44:03.462Z,-1.57
2023-01-22T18:45:03.382Z,-1.54
2023-01-22T18:46:03.374Z,-1.59
2023-01-22T18:47:03.212Z,-1.55
2023-01-22T18:48:03.171Z,-1.55
2023-01-22T18:49:03.075Z,-1.58
2023-01-22T18:50:03.002Z,-1.57
2023-01-22T18:51:02.973Z,-1.58
2023-01-22T18:52:02.835Z,-1.59
2023-01-22T18:53:02.763Z,-1.59
2023-01-22T18:54:02.698Z,-1.59
2023-01-22T18:55:02.603Z,-1.58
2023-01-22T18:56:02.617Z,-1.61
2023-01-22T18:57:02.444Z,-1.55
2023-01-22T18:58:02.384Z,-1.58
2023-01-22T18:59:02.328Z,-1.61
